Time;durP1;ratioP1;P1;durP2;ratioP2;P2;SDS_P1;SDS_P2;PMS_P1;PMS_P2;Temp;Humidity;BMP_temperature;BMP_pressure;BME280_temperature;BME280_humidity;BME280_pressure;Samples;Min_cycle;Max_cycle;Signal;HPM_P1;HPM_P2
2023/03/29 00:01:29;;;;;;;;;17.50;16.75;;;;;11.41;53.79;101114.06;5016294;28;45740;-54
2023/03/29 00:03:56;;;;;;;;;15.20;15.20;;;;;11.43;53.62;101120.22;5016357;28;45353;-52
2023/03/29 00:06:22;;;;;;;;;15.40;12.20;;;;;11.41;53.66;101111.31;5016661;28;45531;-54
2023/03/29 00:08:53;;;;;;;;;16.25;16.00;;;;;11.43;53.56;101111.97;4998504;28;45498;-51
2023/03/29 00:11:19;;;;;;;;;15.40;13.60;;;;;11.41;53.91;101092.06;4999027;28;45495;-53
2023/03/29 00:13:44;;;;;;;;;15.20;11.80;;;;;11.48;53.52;101105.84;5016117;28;45338;-53
2023/03/29 00:16:11;;;;;;;;;16.50;15.75;;;;;11.46;53.47;101105.16;5016134;28;45426;-54
2023/03/29 00:18:38;;;;;;;;;19.40;15.20;;;;;11.44;53.28;101099.91;5014477;28;47832;-54
2023/03/29 00:21:04;;;;;;;;;12.00;12.00;;;;;11.48;53.04;101098.41;5014655;28;45375;-54
2023/03/29 00:23:29;;;;;;;;;13.00;11.25;;;;;11.33;52.83;101078.53;5016337;28;45373;-55
2023/03/29 00:25:55;;;;;;;;;14.50;11.75;;;;;11.47;52.42;101102.22;5016029;28;45617;-54
2023/03/29 00:28:21;;;;;;;;;10.50;10.50;;;;;11.38;53.08;101087.81;5031113;28;46518;-55
2023/03/29 00:30:46;;;;;;;;;16.75;14.25;;;;;11.49;52.93;101104.78;5016045;28;45521;-54
2023/03/29 00:33:13;;;;;;;;;13.50;12.00;;;;;11.49;53.13;101091.84;4985907;28;45465;-54
2023/03/29 00:35:39;;;;;;;;;15.20;13.60;;;;;11.49;52.57;101102.03;5012206;28;45515;-54
2023/03/29 00:38:05;;;;;;;;;16.75;14.75;;;;;11.48;52.81;101097.59;4996999;28;46742;-55
2023/03/29 00:40:31;;;;;;;;;14.20;10.00;;;;;10.73;52.59;100978.44;5015787;28;45383;-56
2023/03/29 00:42:57;;;;;;;;;11.60;10.40;;;;;11.43;52.51;101097.34;5030982;28;45468;-53
2023/03/29 00:45:29;;;;;;;;;10.25;10.25;;;;;11.32;52.74;101079.59;5015981;28;45628;-56
2023/03/29 00:48:24;;;;;;;;;12.40;10.00;;;;;11.33;52.70;101084.03;5014123;28;45339;-54
2023/03/29 00:50:53;;;;;;;;;10.20;9.40;;;;;11.43;52.39;101100.97;4995937;28;45424;-53
2023/03/29 00:53:26;;;;;;;;;10.60;10.60;;;;;11.43;52.66;101092.72;5015382;28;45404;-55
2023/03/29 00:55:58;;;;;;;;;13.00;10.60;;;;;11.42;52.41;101095.66;5016194;28;45192;-53
2023/03/29 00:58:52;;;;;;;;;13.80;10.60;;;;;11.42;52.60;101096.50;5015129;28;46091;-54
2023/03/29 01:01:24;;;;;;;;;12.80;10.80;;;;;11.30;52.11;101076.22;4996721;28;45463;-55
2023/03/29 01:04:01;;;;;;;;;10.60;8.80;;;;;11.44;53.02;101088.06;5013575;28;45495;-52
2023/03/29 01:06:28;;;;;;;;;9.00;9.00;;;;;11.41;52.79;101086.56;5015153;28;45379;-55
2023/03/29 01:09:00;;;;;;;;;9.60;8.40;;;;;11.46;52.92;101095.03;5012308;28;46523;-56
2023/03/29 01:11:31;;;;;;;;;11.80;10.00;;;;;11.43;52.55;101089.97;5015131;28;45426;-52
2023/03/29 01:14:02;;;;;;;;;10.60;8.60;;;;;11.04;52.59;101018.25;5013420;28;45265;-55
2023/03/29 01:16:29;;;;;;;;;10.20;10.20;;;;;11.34;52.71;101070.09;5015191;28;45610;-55
2023/03/29 01:18:57;;;;;;;;;9.80;8.40;;;;;11.39;52.03;101088.69;4997024;28;45470;-56
2023/03/29 01:21:26;;;;;;;;;11.00;8.40;;;;;11.38;52.42;101084.25;4981482;28;45324;-56
2023/03/29 01:24:23;;;;;;;;;11.00;9.20;;;;;11.38;52.64;101087.81;5014757;28;45402;-55
2023/03/29 01:26:59;;;;;;;;;11.40;11.40;;;;;11.39;52.61;101081.28;5014709;28;45450;-51
2023/03/29 01:29:53;;;;;;;;;11.00;10.20;;;;;11.35;52.30;101074.53;5013351;28;46412;-52
2023/03/29 01:32:36;;;;;;;;;8.80;8.00;;;;;11.31;52.63;101065.00;4982806;28;45462;-54
2023/03/29 01:35:09;;;;;;;;;6.80;6.80;;;;;11.34;52.47;101061.84;4997765;28;45399;-56
2023/03/29 01:37:48;;;;;;;;;11.20;9.80;;;;;11.30;52.54;101065.22;5029663;28;45639;-54
2023/03/29 01:40:14;;;;;;;;;9.20;8.00;;;;;11.28;52.44;101059.06;5015288;28;46299;-55
2023/03/29 01:43:01;;;;;;;;;9.50;9.50;;;;;11.29;53.25;101055.25;4996658;28;45683;-54
2023/03/29 01:45:33;;;;;;;;;10.00;9.00;;;;;11.14;52.72;101042.56;5015044;28;45317;-58
2023/03/29 01:48:29;;;;;;;;;10.40;9.40;;;;;11.11;52.78;101026.50;4997383;28;45385;-56
2023/03/29 01:50:58;;;;;;;;;14.20;9.60;;;;;11.00;52.89;101008.75;5014306;28;45459;-54
2023/03/29 01:53:38;;;;;;;;;8.20;8.20;;;;;11.27;52.61;101055.50;4997416;28;45915;-54
2023/03/29 01:56:12;;;;;;;;;9.00;8.80;;;;;11.06;52.90;101029.84;5033712;28;45457;-54
2023/03/29 01:58:45;;;;;;;;;9.60;9.60;;;;;11.30;52.63;101056.97;5017220;28;45421;-54
2023/03/29 02:01:11;;;;;;;;;11.60;9.00;;;;;11.28;53.26;101065.41;5033318;28;45921;-54
2023/03/29 02:03:41;;;;;;;;;13.00;11.00;;;;;11.27;52.95;101054.63;4986917;28;45752;-55
2023/03/29 02:06:18;;;;;;;;;9.80;9.80;;;;;11.20;53.41;101065.63;5032781;28;45339;-55
2023/03/29 02:08:43;;;;;;;;;7.40;7.40;;;;;11.18;53.40;101060.31;5033178;28;45402;-51
2023/03/29 02:11:09;;;;;;;;;9.25;8.75;;;;;11.26;53.54;101070.25;5032640;28;45326;-54
2023/03/29 02:13:34;;;;;;;;;9.50;9.00;;;;;11.28;53.12;101062.69;5015973;28;45340;-54
2023/03/29 02:16:02;;;;;;;;;9.75;8.75;;;;;10.61;53.16;100958.19;5034366;28;45502;-52
2023/03/29 02:18:27;;;;;;;;;9.60;9.20;;;;;11.28;53.03;101067.31;5033884;28;45573;-54
2023/03/29 02:20:53;;;;;;;;;9.00;9.00;;;;;11.27;53.61;101057.38;5016310;28;45587;-54
2023/03/29 02:23:26;;;;;;;;;8.50;8.00;;;;;11.10;53.35;101035.81;5015979;28;45439;-51
2023/03/29 02:25:55;;;;;;;;;7.00;7.00;;;;;11.30;53.77;101057.81;5016823;28;45427;-55
2023/03/29 02:28:21;;;;;;;;;10.80;10.40;;;;;11.29;53.21;101055.25;5001030;28;45388;-54
2023/03/29 02:30:49;;;;;;;;;12.75;10.00;;;;;11.27;53.16;101043.63;5015978;28;45431;-54
2023/03/29 02:33:15;;;;;;;;;15.80;13.60;;;;;11.27;53.83;101036.25;5033580;28;45331;-55
2023/03/29 02:35:47;;;;;;;;;21.75;18.00;;;;;10.99;53.12;100996.03;5034233;28;45865;-53
2023/03/29 02:38:13;;;;;;;;;14.80;14.40;;;;;11.20;53.40;101036.22;5016412;28;45562;-53
2023/03/29 02:40:39;;;;;;;;;15.20;12.00;;;;;11.24;53.93;101047.66;5015846;28;46755;-55
2023/03/29 02:43:05;;;;;;;;;13.20;12.20;;;;;11.03;53.77;100990.97;5015770;28;45401;-55
2023/03/29 02:45:31;;;;;;;;;14.00;14.00;;;;;11.25;53.88;101030.09;5016169;28;45424;-51
2023/03/29 02:47:58;;;;;;;;;11.00;9.00;;;;;11.22;54.26;101027.78;5016113;28;45434;-54
2023/03/29 02:50:25;;;;;;;;;12.20;10.60;;;;;11.18;54.10;101005.38;5015378;28;45931;-52
2023/03/29 02:52:52;;;;;;;;;8.40;8.40;;;;;11.24;53.88;101010.03;5032340;28;46006;-54
2023/03/29 02:55:19;;;;;;;;;14.20;11.00;;;;;11.21;53.89;101021.44;5015522;28;45470;-53
2023/03/29 02:57:44;;;;;;;;;9.00;8.00;;;;;11.19;53.96;101018.06;4999874;28;45362;-52
2023/03/29 03:00:10;;;;;;;;;8.50;8.25;;;;;11.16;54.64;101015.72;5033905;28;46658;-52
2023/03/29 03:02:36;;;;;;;;;13.50;12.00;;;;;11.16;54.47;101012.97;5033372;28;45519;-53
2023/03/29 03:05:02;;;;;;;;;12.00;11.00;;;;;11.14;54.26;101017.84;5034040;28;45825;-52
2023/03/29 03:07:28;;;;;;;;;10.40;10.40;;;;;11.10;54.86;101005.59;5033770;28;45544;-51
2023/03/29 03:09:54;;;;;;;;;8.75;8.50;;;;;10.99;54.59;101007.03;5033500;28;45836;-55
2023/03/29 03:12:19;;;;;;;;;12.50;10.50;;;;;11.03;55.00;101012.94;4999238;28;45745;-55
2023/03/29 03:14:45;;;;;;;;;8.00;8.00;;;;;11.07;55.21;101023.34;5033736;28;45315;-55
2023/03/29 03:17:10;;;;;;;;;12.25;11.50;;;;;11.12;54.93;101011.72;5034035;28;45563;-53
2023/03/29 03:19:37;;;;;;;;;10.75;9.75;;;;;11.13;55.12;101018.91;5015093;28;47402;-53
2023/03/29 03:22:04;;;;;;;;;11.40;9.20;;;;;11.16;54.50;101006.66;5033961;28;45382;-53
2023/03/29 03:24:31;;;;;;;;;10.00;8.60;;;;;11.19;55.41;101006.22;5015939;28;45498;-55
2023/03/29 03:26:57;;;;;;;;;9.80;9.60;;;;;10.97;55.84;100955.06;5015746;28;45585;-52
2023/03/29 03:29:24;;;;;;;;;9.00;9.00;;;;;11.08;55.41;100971.97;5033251;28;45544;-51
2023/03/29 03:31:51;;;;;;;;;9.20;9.00;;;;;11.18;55.74;100994.41;5035452;28;45484;-54
2023/03/29 03:34:18;;;;;;;;;9.80;9.40;;;;;11.22;55.99;101023.13;5037089;28;45395;-54
2023/03/29 03:36:44;;;;;;;;;7.40;7.40;;;;;11.23;55.55;101002.84;5037219;28;45332;-52
2023/03/29 03:39:10;;;;;;;;;10.00;9.75;;;;;11.22;55.79;101001.16;5036660;28;46446;-55
2023/03/29 03:41:36;;;;;;;;;11.40;9.60;;;;;11.27;55.44;101002.44;5036542;28;45532;-53
2023/03/29 03:44:01;;;;;;;;;14.25;11.25;;;;;11.24;55.42;100996.31;5036976;28;45481;-51
2023/03/29 03:46:27;;;;;;;;;9.25;9.00;;;;;11.30;56.18;101007.50;5037018;28;45591;-55
2023/03/29 03:48:52;;;;;;;;;10.75;9.00;;;;;11.33;55.37;101002.44;5036514;28;45468;-53
2023/03/29 03:51:18;;;;;;;;;11.25;10.75;;;;;11.34;55.95;101003.28;5036824;28;45402;-54
2023/03/29 03:53:43;;;;;;;;;9.25;9.00;;;;;11.18;56.24;100977.06;5018251;28;45391;-54
2023/03/29 03:56:09;;;;;;;;;8.00;8.00;;;;;11.34;56.36;101009.63;5036887;28;45448;-57
2023/03/29 03:58:35;;;;;;;;;8.75;7.50;;;;;11.33;55.97;101001.59;5036043;28;45397;-55
2023/03/29 04:01:00;;;;;;;;;9.80;9.20;;;;;11.37;56.19;100994.63;5018607;28;45346;-54
2023/03/29 04:03:26;;;;;;;;;10.75;8.25;;;;;11.43;55.97;100998.41;5036044;28;45492;-54
2023/03/29 04:05:52;;;;;;;;;8.50;7.25;;;;;11.43;55.89;100991.03;5035219;28;45632;-54
2023/03/29 04:08:18;;;;;;;;;9.00;9.00;;;;;11.39;56.16;100987.00;5036110;28;46282;-55
2023/03/29 04:10:50;;;;;;;;;7.50;7.25;;;;;11.47;56.72;101000.53;5035016;28;45357;-55
2023/03/29 04:13:16;;;;;;;;;9.40;8.00;;;;;11.50;56.73;100997.38;5036138;28;45373;-56
2023/03/29 04:15:42;;;;;;;;;9.50;9.00;;;;;11.51;57.28;100993.56;5036624;28;45268;-56
2023/03/29 04:18:07;;;;;;;;;6.50;6.25;;;;;11.35;57.23;100963.75;5035575;28;46172;-55
2023/03/29 04:20:33;;;;;;;;;10.75;9.25;;;;;11.53;56.96;100996.09;5035902;28;45183;-55
2023/03/29 04:22:58;;;;;;;;;6.25;5.00;;;;;11.56;57.29;100992.06;5035954;28;45368;-54
2023/03/29 04:25:24;;;;;;;;;8.50;7.50;;;;;11.53;57.19;100999.69;5036465;28;45488;-51
2023/03/29 04:27:49;;;;;;;;;8.75;8.75;;;;;11.39;57.47;100965.84;5017909;28;46779;-54
2023/03/29 04:30:15;;;;;;;;;9.75;7.00;;;;;11.57;57.40;100985.53;5035488;28;45404;-54
2023/03/29 04:32:41;;;;;;;;;8.60;7.60;;;;;11.58;57.38;100989.97;5035978;28;45384;-51
2023/03/29 04:35:07;;;;;;;;;9.50;9.00;;;;;11.57;57.89;100997.34;5035602;28;45585;-52
2023/03/29 04:37:33;;;;;;;;;10.40;7.80;;;;;11.37;57.79;100959.72;5050965;28;46583;-51
2023/03/29 04:40:03;;;;;;;;;9.50;8.50;;;;;11.49;57.79;100976.41;5017322;28;45358;-53
2023/03/29 04:42:29;;;;;;;;;10.00;8.00;;;;;11.57;57.91;100980.03;5034960;28;45343;-54
2023/03/29 04:44:54;;;;;;;;;7.50;7.50;;;;;11.61;57.75;100986.78;5017849;28;45686;-55
2023/03/29 04:47:22;;;;;;;;;9.50;9.00;;;;;11.62;57.19;100991.22;5001163;28;46778;-53
2023/03/29 04:49:48;;;;;;;;;9.00;9.00;;;;;11.62;57.64;100996.69;5017631;28;45441;-55
2023/03/29 04:52:13;;;;;;;;;9.00;7.25;;;;;11.52;57.88;100975.16;5035544;28;45338;-53
2023/03/29 04:54:39;;;;;;;;;8.75;7.00;;;;;11.62;57.68;100996.69;5035804;28;45568;-54
2023/03/29 04:57:05;;;;;;;;;9.25;9.00;;;;;11.60;57.85;100996.94;5035456;28;46386;-55
2023/03/29 04:59:31;;;;;;;;;7.80;7.80;;;;;11.61;58.29;100979.38;5035543;28;45253;-54
2023/03/29 05:01:56;;;;;;;;;8.50;8.25;;;;;11.43;60.14;100954.44;5034464;28;45352;-55
2023/03/29 05:04:23;;;;;;;;;7.00;7.00;;;;;11.57;61.71;101000.09;5034567;28;45453;-56
2023/03/29 05:06:49;;;;;;;;;7.40;5.00;;;;;11.56;62.62;101005.81;5050953;28;47643;-54
2023/03/29 05:09:14;;;;;;;;;8.00;8.00;;;;;11.49;64.32;101001.16;5035060;28;45426;-54
2023/03/29 05:11:40;;;;;;;;;9.75;8.00;;;;;11.42;63.62;101004.97;5035857;28;45309;-56
2023/03/29 05:14:08;;;;;;;;;10.25;9.25;;;;;11.31;63.62;100990.78;5004424;28;45710;-56
2023/03/29 05:16:34;;;;;;;;;8.00;7.20;;;;;11.48;63.73;101010.47;5035018;28;45491;-55
2023/03/29 05:19:00;;;;;;;;;7.20;6.80;;;;;11.50;63.58;100991.88;5035460;28;45335;-57
2023/03/29 05:21:27;;;;;;;;;8.25;5.25;;;;;11.43;63.80;100976.44;5017445;28;45348;-56
2023/03/29 05:23:52;;;;;;;;;8.20;6.60;;;;;11.47;63.29;100975.78;5017904;28;45359;-57
2023/03/29 05:26:18;;;;;;;;;7.25;7.25;;;;;11.43;62.98;100963.53;5017271;28;45976;-56
2023/03/29 05:28:44;;;;;;;;;8.50;8.00;;;;;11.51;62.56;100982.56;5014441;28;45340;-54
2023/03/29 05:31:10;;;;;;;;;12.40;10.00;;;;;11.51;62.54;100977.06;5017494;28;45472;-56
2023/03/29 05:33:35;;;;;;;;;14.25;11.00;;;;;11.44;62.01;100954.25;5017390;28;45376;-56
2023/03/29 05:36:03;;;;;;;;;8.75;8.75;;;;;11.56;61.68;100970.06;5033697;28;45563;-54
2023/03/29 05:38:29;;;;;;;;;9.60;6.60;;;;;11.56;62.32;100961.81;5016822;28;45806;-55
2023/03/29 05:40:55;;;;;;;;;5.00;5.00;;;;;11.47;62.03;100952.97;5034808;28;45354;-56
2023/03/29 05:43:21;;;;;;;;;8.40;6.80;;;;;11.60;61.80;100965.84;5033876;28;45436;-54
2023/03/29 05:45:46;;;;;;;;;6.75;6.75;;;;;11.64;61.93;100962.44;5034534;28;45684;-52
2023/03/29 05:48:12;;;;;;;;;10.25;8.00;;;;;11.52;61.56;100940.25;5016987;28;45316;-58
2023/03/29 05:50:37;;;;;;;;;10.50;9.50;;;;;11.71;61.42;100973.44;5035092;28;45338;-56
2023/03/29 05:53:03;;;;;;;;;6.75;6.75;;;;;11.73;61.98;100979.56;5035226;28;45548;-52
2023/03/29 05:55:28;;;;;;;;;9.50;9.00;;;;;11.74;61.97;100975.75;5033200;28;46393;-56
2023/03/29 05:57:54;;;;;;;;;9.25;7.00;;;;;11.55;62.12;100944.50;5033745;28;45287;-55
2023/03/29 06:00:22;;;;;;;;;9.25;8.00;;;;;11.56;62.55;100954.44;5035105;28;45328;-54
2023/03/29 06:02:49;;;;;;;;;8.00;7.20;;;;;11.77;62.11;100989.09;5034639;28;45501;-55
2023/03/29 06:05:15;;;;;;;;;7.60;6.40;;;;;11.56;62.45;100961.81;5034446;28;47284;-53
2023/03/29 06:07:41;;;;;;;;;7.75;6.25;;;;;11.61;62.28;100959.28;5016527;28;45745;-54
2023/03/29 06:10:08;;;;;;;;;8.25;7.50;;;;;11.75;62.65;100982.94;5034845;28;45739;-55
2023/03/29 06:12:34;;;;;;;;;12.40;7.80;;;;;11.72;62.78;100980.63;5034581;28;45578;-55
2023/03/29 06:15:03;;;;;;;;;11.20;7.80;;;;;11.72;62.48;100983.38;5034551;28;46492;-53
2023/03/29 06:17:30;;;;;;;;;8.80;4.00;;;;;11.63;63.49;100965.44;5025601;28;45447;-54
2023/03/29 06:19:56;;;;;;;;;8.20;4.40;;;;;11.72;63.34;100977.88;5016607;28;45398;-54
2023/03/29 06:22:22;;;;;;;;;7.00;5.80;;;;;11.74;63.53;100975.75;5035042;28;45479;-56
2023/03/29 06:24:47;;;;;;;;;7.00;5.00;;;;;11.78;63.45;100973.41;5016210;28;45557;-53
2023/03/29 06:27:13;;;;;;;;;10.25;7.75;;;;;11.77;63.24;100969.00;5034738;28;45699;-55
2023/03/29 06:29:39;;;;;;;;;7.50;7.50;;;;;11.75;63.47;100955.44;5000465;28;45383;-51
2023/03/29 06:32:04;;;;;;;;;7.50;6.25;;;;;11.84;63.91;100977.25;5049504;28;45295;-56
2023/03/29 06:34:30;;;;;;;;;11.75;10.50;;;;;11.84;63.57;100969.81;5034594;28;45379;-52
2023/03/29 06:36:56;;;;;;;;;9.50;7.75;;;;;11.84;63.15;100969.00;5016582;28;45541;-55
2023/03/29 06:39:22;;;;;;;;;12.00;11.20;;;;;11.66;63.59;100940.25;4999810;28;45580;-54
2023/03/29 06:41:47;;;;;;;;;11.25;10.50;;;;;11.78;63.17;100956.91;5034406;28;45338;-54
2023/03/29 06:44:16;;;;;;;;;11.25;9.75;;;;;11.96;63.43;100981.03;5015552;28;46765;-53
2023/03/29 06:46:41;;;;;;;;;8.80;8.80;;;;;11.97;63.43;100982.72;5016698;28;45485;-55
2023/03/29 06:49:07;;;;;;;;;9.00;8.00;;;;;11.99;63.48;100980.56;5032894;28;45358;-53
2023/03/29 06:51:32;;;;;;;;;11.50;10.00;;;;;11.93;63.34;100967.69;5034203;28;45505;-55
2023/03/29 06:53:58;;;;;;;;;9.00;7.00;;;;;12.01;63.24;100975.69;5015825;28;45456;-51
2023/03/29 06:56:23;;;;;;;;;9.00;9.00;;;;;11.83;63.26;100937.03;5033957;28;45393;-56
2023/03/29 06:58:50;;;;;;;;;8.75;8.75;;;;;12.03;63.03;100969.97;5034002;28;45307;-57
2023/03/29 07:01:15;;;;;;;;;14.00;11.80;;;;;12.04;62.90;100964.31;5034236;28;45469;-56
2023/03/29 07:03:42;;;;;;;;;16.50;12.75;;;;;12.09;62.90;100968.28;5049090;28;46308;-55
2023/03/29 07:06:11;;;;;;;;;8.80;8.80;;;;;12.15;62.52;100971.03;5016840;28;45387;-52
2023/03/29 07:08:43;;;;;;;;;10.00;10.00;;;;;12.19;62.45;100974.19;5037732;28;45617;-53
2023/03/29 07:11:13;;;;;;;;;14.60;10.80;;;;;12.22;62.46;100981.19;5020182;28;45466;-54
2023/03/29 07:13:41;;;;;;;;;9.60;9.60;;;;;12.25;62.20;100981.59;5037477;28;45560;-55
2023/03/29 07:16:11;;;;;;;;;13.00;9.80;;;;;12.29;62.40;100974.59;5036947;28;45356;-56
2023/03/29 07:18:40;;;;;;;;;10.40;10.40;;;;;12.36;62.07;100984.72;5022629;28;45448;-57
2023/03/29 07:21:06;;;;;;;;;12.00;10.00;;;;;12.22;62.45;100954.50;5023595;28;45458;-55
2023/03/29 07:23:32;;;;;;;;;9.80;8.80;;;;;12.42;61.96;100976.44;5037279;28;46048;-55
2023/03/29 07:25:57;;;;;;;;;16.00;11.50;;;;;12.47;61.98;100981.28;5037165;28;45513;-57
2023/03/29 07:28:23;;;;;;;;;10.00;9.00;;;;;12.49;61.95;100981.91;5037527;28;45201;-56
2023/03/29 07:30:48;;;;;;;;;12.75;11.00;;;;;12.52;62.09;100975.97;5037574;28;45428;-56
2023/03/29 07:33:14;;;;;;;;;11.00;10.00;;;;;12.53;61.98;100977.66;5036755;28;46097;-56
2023/03/29 07:35:42;;;;;;;;;10.00;8.25;;;;;12.51;62.33;100990.81;5037047;28;45545;-53
2023/03/29 07:38:07;;;;;;;;;10.20;7.40;;;;;12.58;61.94;100977.84;5019473;28;45419;-56
2023/03/29 07:40:33;;;;;;;;;12.50;11.00;;;;;12.60;62.04;100975.69;5019282;28;45370;-56
2023/03/29 07:42:58;;;;;;;;;12.25;11.25;;;;;12.66;62.08;100968.50;5036794;28;46435;-53
2023/03/29 07:45:25;;;;;;;;;8.50;8.50;;;;;12.77;62.19;100971.59;5037022;28;45426;-54
2023/03/29 07:47:55;;;;;;;;;10.40;8.20;;;;;12.85;61.84;100974.06;5019501;28;45378;-57
2023/03/29 07:50:20;;;;;;;;;14.60;9.20;;;;;12.83;62.08;100966.06;5037236;28;45408;-57
2023/03/29 07:52:47;;;;;;;;;10.00;10.00;;;;;12.92;61.45;100966.63;5037259;28;45537;-56
2023/03/29 07:55:12;;;;;;;;;10.60;9.00;;;;;12.98;61.72;100965.72;5036542;28;45932;-55
2023/03/29 07:57:38;;;;;;;;;11.25;11.25;;;;;12.95;61.41;100962.56;5019093;28;45308;-55
2023/03/29 08:00:13;;;;;;;;;14.50;11.25;;;;;13.03;61.74;100973.34;5035372;28;45584;-56
2023/03/29 08:02:39;;;;;;;;;9.00;8.80;;;;;13.07;61.30;100987.53;5034642;28;47881;-56
2023/03/29 08:05:05;;;;;;;;;11.50;9.00;;;;;13.04;61.35;100982.44;5036394;28;45356;-56
2023/03/29 08:07:31;;;;;;;;;10.80;8.00;;;;;12.85;61.48;100949.28;5036255;28;45485;-58
2023/03/29 08:09:56;;;;;;;;;9.75;8.50;;;;;12.88;61.28;100946.94;5036855;28;45319;-58
2023/03/29 08:12:22;;;;;;;;;10.25;7.25;;;;;12.96;61.36;100942.25;5051461;28;45557;-56
2023/03/29 08:14:47;;;;;;;;;9.00;9.00;;;;;13.27;61.74;100984.59;5034869;28;45486;-54
2023/03/29 08:17:13;;;;;;;;;13.75;12.00;;;;;13.35;61.72;100989.00;5016828;28;45601;-55
2023/03/29 08:19:39;;;;;;;;;10.00;6.40;;;;;13.41;61.59;100990.88;4998856;28;45580;-54
2023/03/29 08:22:05;;;;;;;;;11.80;9.40;;;;;13.45;62.14;100988.50;5032742;28;46523;-56
2023/03/29 08:24:30;;;;;;;;;7.75;6.25;;;;;13.49;61.90;100981.47;5035971;28;45549;-57
2023/03/29 08:26:56;;;;;;;;;7.50;6.00;;;;;13.51;62.67;100977.44;5033831;28;45398;-55
2023/03/29 08:29:21;;;;;;;;;10.75;5.75;;;;;13.54;62.28;100973.38;5034484;28;45541;-57
2023/03/29 08:31:48;;;;;;;;;8.50;8.00;;;;;13.57;62.60;100981.22;5035107;28;46300;-57
2023/03/29 08:34:13;;;;;;;;;9.00;7.80;;;;;13.63;62.96;100982.22;5017179;28;45338;-55
2023/03/29 08:36:39;;;;;;;;;6.75;6.25;;;;;13.65;63.43;100977.31;5014734;28;45387;-55
2023/03/29 08:39:04;;;;;;;;;5.50;5.50;;;;;13.46;63.20;100946.97;5023440;28;45392;-55
2023/03/29 08:41:39;;;;;;;;;5.75;5.75;;;;;13.73;63.15;100982.56;5033383;28;45292;-55
2023/03/29 08:44:33;;;;;;;;;9.80;4.40;;;;;13.79;63.58;100978.88;5033106;28;45334;-56
2023/03/29 08:47:11;;;;;;;;;8.00;6.20;;;;;13.83;63.55;100966.28;5034928;28;45366;-56
2023/03/29 08:49:36;;;;;;;;;5.00;5.00;;;;;13.88;63.91;100976.66;5014872;28;45895;-53
2023/03/29 08:52:04;;;;;;;;;5.00;5.00;;;;;13.92;63.38;100971.50;4996672;28;45984;-56
2023/03/29 08:54:45;;;;;;;;;8.80;7.20;;;;;13.99;63.62;100965.94;4996943;28;45370;-55
2023/03/29 08:57:18;;;;;;;;;9.40;5.40;;;;;14.06;63.15;100959.28;5014919;28;45537;-55
2023/03/29 08:59:43;;;;;;;;;10.00;7.40;;;;;14.15;63.61;100962.53;5000220;28;45344;-55
2023/03/29 09:02:16;;;;;;;;;7.75;6.25;;;;;14.14;63.45;100952.59;5050277;28;46201;-55
2023/03/29 09:04:42;;;;;;;;;8.40;5.60;;;;;14.17;63.05;100954.03;5016832;28;45461;-54
2023/03/29 09:07:08;;;;;;;;;9.20;6.40;;;;;14.25;63.00;100963.94;5034925;28;45332;-56
2023/03/29 09:09:34;;;;;;;;;5.60;3.80;;;;;14.34;63.04;100974.44;5016923;28;45390;-56
2023/03/29 09:12:05;;;;;;;;;6.00;6.00;;;;;14.22;63.58;100946.78;4999043;28;45975;-54
2023/03/29 09:14:37;;;;;;;;;5.80;5.60;;;;;14.49;63.55;100974.03;5034474;28;45380;-57
2023/03/29 09:17:07;;;;;;;;;5.00;5.00;;;;;14.46;62.76;100944.13;5033407;28;45441;-55
2023/03/29 09:19:44;;;;;;;;;6.80;5.20;;;;;14.74;62.67;100961.19;4996241;28;45641;-55
2023/03/29 09:22:35;;;;;;;;;7.00;7.00;;;;;14.79;62.37;100971.53;5029953;28;45509;-53
2023/03/29 09:25:37;;;;;;;;;5.60;4.00;;;;;14.84;62.77;100960.63;5040586;28;49190;-54
2023/03/29 09:28:33;;;;;;;;;4.40;4.40;;;;;14.96;62.70;100958.75;5026315;28;45878;-52
2023/03/29 09:31:11;;;;;;;;;7.20;4.80;;;;;15.05;62.24;100959.22;5034310;28;45960;-51
2023/03/29 09:33:43;;;;;;;;;6.60;4.80;;;;;14.98;62.31;100937.25;5035041;28;45521;-53
2023/03/29 09:36:45;;;;;;;;;5.00;5.00;;;;;15.16;62.17;100952.06;5051212;28;45880;-55
2023/03/29 09:39:13;;;;;;;;;7.60;6.60;;;;;14.95;62.47;100907.31;5044354;28;45586;-53
2023/03/29 09:41:45;;;;;;;;;6.00;5.00;;;;;15.30;62.45;100955.44;5069578;28;45464;-52
2023/03/29 09:44:19;;;;;;;;;6.00;5.00;;;;;15.40;61.70;100960.38;5036866;28;46775;-55
2023/03/29 09:46:55;;;;;;;;;3.00;3.00;;;;;15.35;61.56;100932.59;5036100;28;45395;-52
2023/03/29 09:49:25;;;;;;;;;7.20;5.20;;;;;15.55;61.38;100952.47;5009194;28;45585;-53
2023/03/29 09:51:51;;;;;;;;;9.00;7.60;;;;;15.60;61.84;100948.97;5006856;28;45548;-53
2023/03/29 09:54:17;;;;;;;;;7.00;7.00;;;;;15.69;61.58;100941.16;5031730;28;45750;-53
2023/03/29 09:56:42;;;;;;;;;5.25;4.75;;;;;15.79;61.63;100938.59;5031315;28;45342;-55
2023/03/29 09:59:11;;;;;;;;;4.00;4.00;;;;;15.82;61.53;100931.75;5031920;28;45458;-53
2023/03/29 10:01:38;;;;;;;;;4.40;4.20;;;;;15.76;61.32;100916.97;5030986;28;45779;-53
2023/03/29 10:04:07;;;;;;;;;4.60;3.60;;;;;15.91;61.28;100933.03;5013645;28;46786;-55
2023/03/29 10:06:33;;;;;;;;;6.20;5.00;;;;;15.64;61.51;100896.75;5031761;28;45334;-52
2023/03/29 10:08:58;;;;;;;;;4.50;4.50;;;;;15.83;61.17;100917.66;4997338;28;45704;-56
2023/03/29 10:11:33;;;;;;;;;4.50;4.50;;;;;15.99;61.26;100937.41;5012554;28;45581;-56
2023/03/29 10:14:06;;;;;;;;;4.20;4.20;;;;;16.06;61.06;100938.09;5030400;28;45763;-56
2023/03/29 10:16:40;;;;;;;;;3.40;1.80;;;;;16.02;60.81;100909.25;5013715;28;45422;-56
2023/03/29 10:19:22;;;;;;;;;5.60;4.60;;;;;16.23;60.40;100918.78;5022113;28;45721;-53
2023/03/29 10:21:51;;;;;;;;;8.00;5.60;;;;;16.44;60.28;100921.16;5003179;28;45469;-57
2023/03/29 10:24:20;;;;;;;;;4.00;4.00;;;;;16.47;59.48;100909.56;5022017;28;45784;-56
2023/03/29 10:26:45;;;;;;;;;3.60;3.00;;;;;16.52;59.16;100901.34;5042746;28;45366;-54
2023/03/29 10:29:11;;;;;;;;;5.50;5.00;;;;;16.58;58.94;100900.34;5051569;28;45734;-56
2023/03/29 10:31:40;;;;;;;;;3.25;3.00;;;;;16.65;58.53;100898.28;5051726;28;45374;-55
2023/03/29 10:34:05;;;;;;;;;2.60;2.60;;;;;16.70;58.04;100905.00;5017050;28;46288;-53
2023/03/29 10:36:31;;;;;;;;;5.25;5.25;;;;;16.62;57.79;100870.22;5049066;28;45344;-54
2023/03/29 10:38:58;;;;;;;;;4.50;4.50;;;;;16.53;56.89;100844.84;5018890;28;45429;-55
2023/03/29 10:41:23;;;;;;;;;3.60;3.20;;;;;16.93;57.23;100893.75;5012641;28;45519;-55
2023/03/29 10:43:49;;;;;;;;;3.50;3.25;;;;;17.06;56.95;100886.25;5012500;28;45988;-53
2023/03/29 10:46:24;;;;;;;;;5.00;4.20;;;;;17.17;56.10;100893.63;5013392;28;45397;-55
2023/03/29 10:48:54;;;;;;;;;3.00;3.00;;;;;17.20;54.93;100884.78;5028717;28;45404;-53
2023/03/29 10:51:20;;;;;;;;;4.20;2.00;;;;;17.32;52.94;100889.41;5030285;28;45457;-57
2023/03/29 10:53:46;;;;;;;;;3.00;2.75;;;;;17.39;52.66;100881.75;4993155;28;45573;-54
2023/03/29 10:56:32;;;;;;;;;4.00;3.00;;;;;17.50;52.00;100873.59;5028473;28;45348;-55
2023/03/29 10:59:16;;;;;;;;;1.60;1.60;;;;;17.41;50.67;100851.84;5014163;28;45461;-58
2023/03/29 11:02:00;;;;;;;;;3.40;2.80;;;;;17.64;50.42;100877.69;5034938;28;45983;-55
2023/03/29 11:04:44;;;;;;;;;5.00;4.00;;;;;17.71;49.36;100880.25;5010940;28;45762;-55
2023/03/29 11:07:38;;;;;;;;;2.60;2.60;;;;;17.82;48.76;100875.69;5025615;28;45534;-58
2023/03/29 11:10:44;;;;;;;;;3.80;3.80;;;;;18.00;46.58;100872.56;5005424;28;45512;-56
2023/03/29 11:13:31;;;;;;;;;4.00;3.00;;;;;18.15;46.94;100865.59;5044393;28;45818;-52
2023/03/29 11:16:21;;;;;;;;;3.00;2.80;;;;;18.22;46.80;100862.59;5023275;28;45863;-58
2023/03/29 11:18:56;;;;;;;;;4.60;3.00;;;;;18.35;45.17;100851.06;5013007;28;46001;-54
2023/03/29 11:22:13;;;;;;;;;4.20;4.00;;;;;18.45;45.08;100860.63;5013354;28;45589;-54
2023/03/29 11:24:53;;;;;;;;;5.20;3.80;;;;;18.52;45.06;100850.13;4980506;28;45409;-55
2023/03/29 11:27:46;;;;;;;;;2.80;2.80;;;;;18.54;44.61;100853.47;5034278;28;45731;-50
2023/03/29 11:30:23;;;;;;;;;2.80;2.20;;;;;18.56;44.83;100854.88;5014715;28;45715;-51